Time;durP1;ratioP1;P1;durP2;ratioP2;P2;SDS_P1;SDS_P2;PMS_P1;PMS_P2;Temp;Humidity;BMP_temperature;BMP_pressure;BME280_temperature;BME280_humidity;BME280_pressure;Samples;Min_cycle;Max_cycle;Signal;HPM_P1;HPM_P2
2021/10/19 00:01:56;;;;;;;12.88;10.00;;;;;;;7.73;78.92;97400.13;5094510;28;20024;-62
2021/10/19 00:04:23;;;;;;;14.15;9.05;;;;;;;7.72;79.32;97403.63;5094427;28;20097;-61
2021/10/19 00:06:49;;;;;;;18.10;9.38;;;;;;;7.73;79.12;97409.72;5094587;28;20031;-61
2021/10/19 00:09:15;;;;;;;11.45;8.82;;;;;;;7.73;79.70;97407.94;5094563;28;20016;-63
2021/10/19 00:11:40;;;;;;;14.60;9.05;;;;;;;7.76;79.79;97407.03;5094452;28;20492;-62
2021/10/19 00:14:06;;;;;;;14.55;8.85;;;;;;;7.80;79.79;97406.13;5094426;28;20435;-60
2021/10/19 00:16:32;;;;;;;9.57;7.95;;;;;;;7.85;79.84;97412.13;5094243;28;20024;-63
2021/10/19 00:18:57;;;;;;;9.13;8.23;;;;;;;7.84;80.16;97410.41;5094340;28;20024;-61
2021/10/19 00:21:23;;;;;;;13.00;9.13;;;;;;;7.87;80.37;97410.38;5076055;28;20697;-60
2021/10/19 00:23:48;;;;;;;12.60;9.27;;;;;;;7.87;80.94;97412.13;5094431;28;20039;-62
2021/10/19 00:26:14;;;;;;;15.52;10.35;;;;;;;7.93;81.44;97412.03;5094241;28;20028;-60
2021/10/19 00:28:39;;;;;;;11.02;9.40;;;;;;;7.96;81.49;97409.41;5094104;28;20031;-63
2021/10/19 00:31:05;;;;;;;11.93;10.38;;;;;;;8.02;81.76;97411.91;5093652;28;20020;-63
2021/10/19 00:33:30;;;;;;;12.75;10.13;;;;;;;8.06;81.96;97405.78;5094045;28;20505;-63
2021/10/19 00:35:56;;;;;;;11.23;10.13;;;;;;;8.12;82.55;97403.97;5094106;28;20101;-61
2021/10/19 00:38:21;;;;;;;13.77;11.00;;;;;;;8.17;83.01;97405.63;5094091;28;20090;-63
2021/10/19 00:40:47;;;;;;;18.67;13.40;;;;;;;8.23;83.75;97409.88;5093810;28;20020;-63
2021/10/19 00:43:12;;;;;;;14.32;12.05;;;;;;;8.28;83.98;97405.47;5093750;28;20016;-62
2021/10/19 00:45:38;;;;;;;15.75;11.02;;;;;;;8.38;84.08;97410.53;5093780;28;20043;-60
2021/10/19 00:48:05;;;;;;;18.35;11.73;;;;;;;8.41;83.90;97415.72;5093803;28;20056;-62
2021/10/19 00:50:32;;;;;;;13.98;11.45;;;;;;;8.47;83.90;97421.72;5093703;28;20374;-62
2021/10/19 00:52:58;;;;;;;14.90;12.45;;;;;;;8.59;83.87;97410.25;5093840;28;20024;-63
2021/10/19 00:55:24;;;;;;;18.40;11.80;;;;;;;8.70;83.70;97414.44;5093593;28;20786;-61
2021/10/19 00:57:51;;;;;;;14.13;11.57;;;;;;;8.78;83.33;97415.16;5093591;28;20032;-62
2021/10/19 01:00:16;;;;;;;12.65;10.77;;;;;;;8.91;82.48;97410.56;5093574;28;20031;-63
2021/10/19 01:02:43;;;;;;;20.63;14.73;;;;;;;9.01;82.00;97410.41;5093538;28;20024;-60
2021/10/19 01:05:11;;;;;;;14.43;11.18;;;;;;;9.12;82.14;97413.69;5093321;28;20048;-60
2021/10/19 01:07:36;;;;;;;12.27;10.98;;;;;;;9.19;81.09;97404.88;5093463;28;20091;-61
2021/10/19 01:10:05;;;;;;;12.68;10.18;;;;;;;9.24;80.45;97399.53;5093521;28;20050;-63
2021/10/19 01:12:32;;;;;;;13.98;10.70;;;;;;;9.32;80.70;97397.66;5093504;28;20098;-62
2021/10/19 01:14:58;;;;;;;12.10;10.32;;;;;;;9.45;80.01;97400.06;5093396;28;20062;-61
2021/10/19 01:17:24;;;;;;;11.85;10.43;;;;;;;9.50;79.38;97402.53;5093263;28;20032;-60
2021/10/19 01:19:51;;;;;;;12.10;10.88;;;;;;;9.57;79.47;97398.94;5093198;28;20031;-62
2021/10/19 01:22:17;;;;;;;13.65;10.48;;;;;;;9.59;79.38;97400.63;5093153;28;20099;-64
2021/10/19 01:24:45;;;;;;;11.40;9.73;;;;;;;9.63;79.81;97405.78;5093316;28;20028;-62
2021/10/19 01:27:12;;;;;;;14.00;10.48;;;;;;;9.64;80.21;97402.28;5093246;28;20016;-60
2021/10/19 01:29:37;;;;;;;11.82;10.60;;;;;;;9.65;80.39;97404.84;5093124;28;20055;-61
2021/10/19 01:32:03;;;;;;;13.63;10.80;;;;;;;9.59;80.52;97400.63;5093104;28;20370;-62
2021/10/19 01:34:34;;;;;;;12.90;11.07;;;;;;;9.60;80.52;97404.06;5093171;28;20036;-63
2021/10/19 01:36:59;;;;;;;15.52;11.05;;;;;;;9.57;80.25;97396.31;5093166;28;20405;-61
2021/10/19 01:39:25;;;;;;;13.43;10.98;;;;;;;9.56;78.21;97402.44;5093075;28;20084;-60
2021/10/19 01:41:50;;;;;;;13.73;10.00;;;;;;;9.66;78.18;97408.34;5092897;28;20028;-62
2021/10/19 01:44:16;;;;;;;12.88;10.75;;;;;;;9.66;77.59;97398.72;5096599;28;20042;-61
2021/10/19 01:46:41;;;;;;;13.85;9.95;;;;;;;9.72;77.36;97408.19;5097406;28;20077;-60
2021/10/19 01:49:07;;;;;;;12.25;10.63;;;;;;;9.80;75.69;97406.28;5097334;28;20470;-60
2021/10/19 01:51:33;;;;;;;12.55;10.40;;;;;;;9.82;75.64;97404.50;5097238;28;20039;-63
2021/10/19 01:53:59;;;;;;;13.23;11.35;;;;;;;9.80;76.02;97411.53;5097026;28;20027;-62
2021/10/19 01:56:24;;;;;;;14.13;11.38;;;;;;;9.91;74.63;97413.03;5097089;28;20020;-63
2021/10/19 01:58:50;;;;;;;14.52;10.02;;;;;;;9.97;74.29;97415.53;5096956;28;20036;-61
2021/10/19 02:01:16;;;;;;;13.52;10.48;;;;;;;9.97;73.98;97419.00;5097014;28;20023;-61
2021/10/19 02:03:41;;;;;;;16.38;10.25;;;;;;;9.99;74.52;97416.34;5096763;28;20046;-61
2021/10/19 02:06:07;;;;;;;15.35;11.32;;;;;;;10.00;74.27;97420.69;5097109;28;20024;-63
2021/10/19 02:08:33;;;;;;;15.13;11.73;;;;;;;9.98;74.55;97419.84;5097027;28;20079;-62
2021/10/19 02:10:59;;;;;;;11.75;10.55;;;;;;;10.01;73.13;97421.53;5097013;28;20374;-63
2021/10/19 02:13:25;;;;;;;12.75;11.05;;;;;;;10.06;72.10;97419.69;5096687;28;20054;-61
2021/10/19 02:15:51;;;;;;;12.38;10.80;;;;;;;10.07;72.65;97418.78;5096767;28;20017;-60
2021/10/19 02:18:16;;;;;;;12.20;10.80;;;;;;;10.08;71.78;97418.75;5096653;28;20458;-63
2021/10/19 02:20:42;;;;;;;14.25;10.85;;;;;;;10.10;73.17;97419.59;5096420;28;20081;-61
2021/10/19 02:23:08;;;;;;;14.82;12.05;;;;;;;10.14;72.90;97419.53;5096659;28;20101;-62
2021/10/19 02:25:34;;;;;;;13.35;11.70;;;;;;;10.13;72.72;97423.91;5096544;28;20424;-60
2021/10/19 02:28:00;;;;;;;14.00;11.57;;;;;;;10.15;73.36;97418.63;5096552;28;20081;-61
2021/10/19 02:30:26;;;;;;;14.05;9.70;;;;;;;10.16;70.82;97418.59;5096382;28;20120;-62
2021/10/19 02:32:54;;;;;;;14.65;10.82;;;;;;;10.17;70.90;97422.09;5096360;28;20098;-63
2021/10/19 02:35:20;;;;;;;12.63;9.90;;;;;;;10.19;71.18;97426.38;5096359;28;20024;-62
2021/10/19 02:37:48;;;;;;;12.98;9.00;;;;;;;10.23;70.32;97424.53;5096367;28;20383;-61
2021/10/19 02:40:15;;;;;;;10.50;9.50;;;;;;;10.25;69.42;97430.59;5096276;28;20046;-62
2021/10/19 02:42:41;;;;;;;12.55;10.25;;;;;;;10.32;69.66;97431.31;5096078;28;20020;-61
2021/10/19 02:45:08;;;;;;;10.73;8.90;;;;;;;10.32;68.71;97431.31;5096164;28;20431;-61
2021/10/19 02:47:33;;;;;;;11.50;10.20;;;;;;;10.30;70.68;97430.50;5096174;28;20047;-63
2021/10/19 02:49:59;;;;;;;13.63;9.18;;;;;;;10.27;70.16;97434.06;5096050;28;20457;-63
2021/10/19 02:52:24;;;;;;;10.32;9.20;;;;;;;10.20;68.42;97430.69;5096019;28;20137;-62
2021/10/19 02:54:51;;;;;;;10.90;8.77;;;;;;;10.19;68.88;97436.84;5095580;28;20052;-63
2021/10/19 02:57:20;;;;;;;9.70;8.52;;;;;;;10.22;68.70;97433.28;5095967;28;20498;-63
2021/10/19 02:59:46;;;;;;;11.65;9.50;;;;;;;10.16;69.27;97431.66;5095895;28;20027;-62
2021/10/19 03:02:12;;;;;;;11.75;9.43;;;;;;;10.14;70.04;97443.91;5095926;28;20028;-62
2021/10/19 03:04:37;;;;;;;12.40;8.50;;;;;;;10.10;70.10;97430.06;5095605;28;20040;-63
2021/10/19 03:07:03;;;;;;;11.55;9.75;;;;;;;10.13;69.76;97429.13;5095730;28;20106;-62
2021/10/19 03:09:29;;;;;;;10.75;9.40;;;;;;;10.08;70.71;97431.84;5095667;28;20389;-62
2021/10/19 03:11:54;;;;;;;13.30;10.55;;;;;;;10.06;73.09;97435.38;5095822;28;20028;-63
2021/10/19 03:14:20;;;;;;;11.35;9.90;;;;;;;10.03;72.98;97449.38;5095776;28;20024;-62
2021/10/19 03:16:46;;;;;;;13.35;10.52;;;;;;;10.01;72.77;97451.16;5095599;28;20374;-63
2021/10/19 03:19:11;;;;;;;12.15;9.52;;;;;;;10.02;73.02;97462.50;5095609;28;20059;-60
2021/10/19 03:21:37;;;;;;;14.32;11.02;;;;;;;9.93;73.38;97453.09;5095385;28;20055;-62
2021/10/19 03:24:04;;;;;;;15.40;9.25;;;;;;;9.94;72.62;97463.47;5095497;28;20120;-61
2021/10/19 03:26:29;;;;;;;12.45;10.85;;;;;;;9.86;72.63;97457.56;5095383;28;20024;-62
2021/10/19 03:28:55;;;;;;;10.90;9.73;;;;;;;9.87;73.10;97459.28;5095343;28;20489;-61
2021/10/19 03:31:21;;;;;;;34.28;26.85;;;;;;;9.85;73.14;97451.47;5077203;28;20073;-63
2021/10/19 03:33:46;;;;;;;20.30;16.27;;;;;;;9.76;73.71;97456.03;5095400;28;20031;-61
2021/10/19 03:36:12;;;;;;;13.52;11.00;;;;;;;9.71;74.30;97453.50;5095308;28;20020;-61
2021/10/19 03:38:38;;;;;;;12.32;10.32;;;;;;;9.72;74.94;97452.59;5095207;28;20036;-61
2021/10/19 03:41:05;;;;;;;13.80;11.30;;;;;;;9.69;75.19;97445.69;5094943;28;20032;-63
2021/10/19 03:43:31;;;;;;;12.95;10.68;;;;;;;9.68;75.61;97451.81;5095143;28;20032;-63
2021/10/19 03:45:57;;;;;;;12.18;10.73;;;;;;;9.66;75.51;97453.59;5095045;28;20020;-59
2021/10/19 03:48:22;;;;;;;15.88;11.25;;;;;;;9.63;75.70;97461.50;5094977;28;20020;-61
2021/10/19 03:50:48;;;;;;;14.20;11.57;;;;;;;9.61;75.84;97464.13;5094890;28;20031;-63
2021/10/19 03:53:14;;;;;;;14.88;12.02;;;;;;;9.58;76.29;97474.63;5094950;28;20107;-62
2021/10/19 03:55:40;;;;;;;12.77;11.15;;;;;;;9.56;76.42;97466.00;5094756;28;20028;-63
2021/10/19 03:58:05;;;;;;;13.90;11.73;;;;;;;9.46;76.23;97467.06;5094816;28;20026;-63
2021/10/19 04:00:31;;;;;;;16.13;12.13;;;;;;;9.41;76.21;97461.91;5076597;28;20382;-61
2021/10/19 04:02:56;;;;;;;12.73;10.68;;;;;;;9.43;76.33;97472.34;5094395;28;20063;-61
2021/10/19 04:05:22;;;;;;;18.05;11.35;;;;;;;9.39;76.60;97475.91;5093688;28;20054;-61
2021/10/19 04:07:48;;;;;;;13.18;11.60;;;;;;;9.31;76.49;97476.91;5094629;28;20028;-62
2021/10/19 04:10:15;;;;;;;13.73;11.27;;;;;;;9.30;76.27;97479.53;5094600;28;20024;-62
2021/10/19 04:12:41;;;;;;;14.02;12.20;;;;;;;9.27;75.98;97483.03;5094582;28;20055;-63
2021/10/19 04:15:07;;;;;;;13.25;11.68;;;;;;;9.28;76.32;97482.19;5094401;28;20056;-63
2021/10/19 04:17:33;;;;;;;12.63;11.27;;;;;;;9.22;76.23;97487.50;5094392;28;20043;-60
2021/10/19 04:19:58;;;;;;;15.77;11.50;;;;;;;9.18;76.41;97491.06;5094307;28;20485;-63
2021/10/19 04:22:24;;;;;;;14.18;11.70;;;;;;;9.17;76.65;97492.78;5094270;28;20414;-62
2021/10/19 04:24:52;;;;;;;20.95;12.18;;;;;;;9.11;76.37;97492.91;5094339;28;20123;-60
2021/10/19 04:27:22;;;;;;;14.35;11.60;;;;;;;9.10;76.43;97499.84;5094201;28;20032;-62
2021/10/19 04:29:47;;;;;;;16.95;11.07;;;;;;;9.05;76.10;97499.09;5094198;28;20481;-60
2021/10/19 04:32:13;;;;;;;11.73;10.48;;;;;;;9.01;76.23;97497.41;5094092;28;20030;-62
2021/10/19 04:34:39;;;;;;;14.68;10.38;;;;;;;8.96;76.42;97494.88;5094096;28;20563;-63
2021/10/19 04:37:05;;;;;;;13.23;10.80;;;;;;;8.88;76.26;97493.28;5093984;28;20024;-60
2021/10/19 04:39:31;;;;;;;18.67;10.60;;;;;;;8.78;76.16;97503.84;5094012;28;20066;-63
2021/10/19 04:41:57;;;;;;;11.75;10.02;;;;;;;8.74;76.19;97504.78;5093862;28;20074;-61
2021/10/19 04:44:23;;;;;;;17.40;11.13;;;;;;;8.72;76.30;97504.81;5093964;28;20028;-62
2021/10/19 04:46:50;;;;;;;12.25;9.55;;;;;;;8.70;75.96;97505.75;5093967;28;20028;-62
2021/10/19 04:49:15;;;;;;;13.85;9.95;;;;;;;8.62;76.16;97511.06;5093926;28;20027;-63
2021/10/19 04:51:41;;;;;;;11.77;10.13;;;;;;;8.62;75.90;97504.97;5094081;28;20381;-63
2021/10/19 04:54:07;;;;;;;15.80;10.63;;;;;;;8.65;76.38;97508.41;5093691;28;20118;-63
2021/10/19 04:56:33;;;;;;;14.25;11.25;;;;;;;8.67;76.39;97511.84;5093620;28;20100;-62
2021/10/19 04:58:59;;;;;;;15.70;11.30;;;;;;;8.69;77.45;97517.91;5093688;28;20107;-61
2021/10/19 05:01:25;;;;;;;15.85;11.43;;;;;;;8.76;77.54;97520.44;5093722;28;20028;-63
2021/10/19 05:03:52;;;;;;;16.75;11.40;;;;;;;8.81;78.14;97522.06;5093494;28;20036;-63
2021/10/19 05:06:18;;;;;;;15.95;12.88;;;;;;;8.79;78.25;97526.44;5093453;28;20020;-61
2021/10/19 05:08:43;;;;;;;17.17;11.90;;;;;;;8.79;78.19;97531.66;5093627;28;20024;-60
2021/10/19 05:11:09;;;;;;;15.00;12.38;;;;;;;8.88;77.15;97533.28;5093523;28;20035;-63
2021/10/19 05:13:34;;;;;;;13.70;10.65;;;;;;;8.90;76.84;97531.50;5093523;28;20055;-61
2021/10/19 05:16:00;;;;;;;14.45;12.18;;;;;;;8.98;77.29;97528.78;5093362;28;20085;-62
2021/10/19 05:18:26;;;;;;;14.43;11.50;;;;;;;9.04;77.20;97538.25;5093324;28;20072;-61
2021/10/19 05:20:51;;;;;;;14.68;11.57;;;;;;;9.09;77.37;97544.25;5093244;28;20080;-63
2021/10/19 05:23:17;;;;;;;12.88;11.35;;;;;;;9.25;78.30;97547.50;5075512;28;20169;-63
2021/10/19 05:25:43;;;;;;;13.57;12.05;;;;;;;9.40;77.41;97546.38;5093240;28;20020;-61
2021/10/19 05:28:08;;;;;;;17.20;11.05;;;;;;;9.47;77.17;97552.34;5093266;28;20024;-62
2021/10/19 05:30:34;;;;;;;14.68;11.25;;;;;;;9.52;77.07;97554.88;5093183;28;20058;-60
2021/10/19 05:33:03;;;;;;;12.73;10.35;;;;;;;9.52;76.90;97560.97;5093128;28;20027;-62
2021/10/19 05:35:32;;;;;;;12.20;9.63;;;;;;;9.50;75.94;97564.47;5093210;28;20109;-61
2021/10/19 05:37:58;;;;;;;11.88;10.45;;;;;;;9.51;75.89;97567.06;5093195;28;20024;-63
2021/10/19 05:40:24;;;;;;;11.52;9.30;;;;;;;9.48;74.54;97567.13;5093040;28;20032;-63
2021/10/19 05:42:49;;;;;;;11.55;9.40;;;;;;;9.42;73.93;97575.09;5093055;28;20107;-60
2021/10/19 05:45:17;;;;;;;12.02;9.05;;;;;;;9.41;73.44;97573.34;5093112;28;20434;-60
2021/10/19 05:47:42;;;;;;;10.63;8.30;;;;;;;9.46;71.84;97588.03;5093162;28;20419;-63
2021/10/19 05:50:09;;;;;;;18.77;9.07;;;;;;;9.56;73.37;97591.38;5093119;28;20035;-61
2021/10/19 05:52:35;;;;;;;14.18;10.30;;;;;;;9.66;75.15;97599.06;5092959;28;20099;-61
2021/10/19 05:55:00;;;;;;;13.23;9.60;;;;;;;9.69;76.89;97597.25;5092951;28;20043;-64
2021/10/19 05:57:26;;;;;;;10.80;8.65;;;;;;;9.68;74.39;97608.59;5092980;28;20474;-63
2021/10/19 05:59:52;;;;;;;14.43;9.95;;;;;;;9.71;73.80;97612.91;5092982;28;20103;-63
2021/10/19 06:02:17;;;;;;;10.52;8.63;;;;;;;9.78;72.72;97613.66;5092898;28;20496;-62
2021/10/19 06:04:43;;;;;;;12.48;9.35;;;;;;;9.91;73.80;97614.31;5092658;28;20139;-63
2021/10/19 06:07:08;;;;;;;13.20;10.27;;;;;;;10.03;75.58;97621.94;5092762;28;20039;-62
2021/10/19 06:09:34;;;;;;;11.52;10.38;;;;;;;10.16;77.87;97612.09;5092874;28;20073;-62
2021/10/19 06:12:00;;;;;;;11.77;9.90;;;;;;;10.27;77.16;97622.34;5092857;28;20103;-61
2021/10/19 06:14:26;;;;;;;12.23;9.75;;;;;;;10.37;76.29;97620.41;5092776;28;20020;-63
2021/10/19 06:16:52;;;;;;;12.43;10.18;;;;;;;10.46;76.81;97627.22;5092816;28;20016;-63
2021/10/19 06:19:18;;;;;;;10.98;9.85;;;;;;;10.55;77.04;97628.78;5092679;28;20382;-63
2021/10/19 06:21:43;;;;;;;10.70;9.60;;;;;;;10.62;77.34;97630.38;5092678;28;20035;-63
2021/10/19 06:24:09;;;;;;;13.15;9.98;;;;;;;10.71;77.06;97634.56;5092807;28;20113;-63
2021/10/19 06:26:36;;;;;;;13.25;11.60;;;;;;;10.77;76.88;97628.38;5092726;28;20093;-63
2021/10/19 06:29:04;;;;;;;10.20;8.02;;;;;;;10.87;69.97;97625.50;5094027;28;20031;-61
2021/10/19 06:31:30;;;;;;;12.20;8.98;;;;;;;11.03;72.75;97630.41;5096523;28;20020;-63
2021/10/19 06:33:55;;;;;;;10.27;8.10;;;;;;;11.18;71.90;97630.94;5096453;28;20099;-61
2021/10/19 06:36:21;;;;;;;12.65;8.90;;;;;;;11.44;72.31;97632.09;5096445;28;20020;-62
2021/10/19 06:38:46;;;;;;;10.65;7.63;;;;;;;11.66;69.15;97637.66;5096355;28;20482;-61
2021/10/19 06:41:12;;;;;;;13.40;9.52;;;;;;;11.82;69.34;97646.00;5096322;28;20051;-62
2021/10/19 06:43:37;;;;;;;11.60;9.15;;;;;;;11.95;69.95;97653.56;5096174;28;20051;-62
2021/10/19 06:46:04;;;;;;;12.43;8.27;;;;;;;12.08;69.96;97657.63;5096233;28;20055;-63
2021/10/19 06:48:30;;;;;;;14.48;10.43;;;;;;;12.18;70.21;97658.22;5096243;28;20028;-64
2021/10/19 06:50:55;;;;;;;11.88;10.05;;;;;;;12.28;70.18;97663.22;5096098;28;20024;-64
2021/10/19 06:53:21;;;;;;;12.73;10.40;;;;;;;12.31;70.03;97666.63;5096068;28;20351;-63
2021/10/19 06:55:47;;;;;;;11.75;10.07;;;;;;;12.41;69.01;97656.75;5095982;28;20424;-61
2021/10/19 06:58:12;;;;;;;13.93;10.80;;;;;;;12.55;69.00;97663.38;5095910;28;20024;-61
2021/10/19 07:00:38;;;;;;;10.50;9.20;;;;;;;12.66;67.65;97663.91;5096035;28;20059;-63
2021/10/19 07:03:03;;;;;;;10.00;8.98;;;;;;;12.82;65.74;97669.59;5095939;28;20028;-63
2021/10/19 07:05:29;;;;;;;9.23;8.05;;;;;;;12.94;64.89;97671.00;5095531;28;20044;-63
2021/10/19 07:07:55;;;;;;;12.60;7.80;;;;;;;13.12;62.91;97673.97;5095796;28;20470;-61
2021/10/19 07:10:20;;;;;;;8.50;7.10;;;;;;;13.27;62.17;97673.50;5095765;28;20517;-63
2021/10/19 07:12:47;;;;;;;9.75;8.07;;;;;;;13.46;60.95;97672.91;5095735;28;20032;-62
2021/10/19 07:15:14;;;;;;;12.98;7.38;;;;;;;13.64;60.61;97679.38;5095678;28;20024;-62
2021/10/19 07:17:41;;;;;;;9.88;7.55;;;;;;;13.80;59.96;97678.03;5095710;28;20031;-61
2021/10/19 07:20:10;;;;;;;8.23;7.30;;;;;;;13.99;58.28;97673.88;5095588;28;20020;-63
2021/10/19 07:22:37;;;;;;;6.97;6.28;;;;;;;14.35;56.22;97671.78;5095487;28;20183;-64
2021/10/19 07:25:05;;;;;;;11.50;6.82;;;;;;;14.76;53.83;97668.59;5095463;28;20039;-64
2021/10/19 07:27:31;;;;;;;8.07;5.30;;;;;;;15.02;50.56;97669.44;5095436;28;20382;-62
2021/10/19 07:29:58;;;;;;;8.05;6.50;;;;;;;15.15;53.18;97680.34;5095284;28;20055;-62
2021/10/19 07:32:25;;;;;;;6.97;5.60;;;;;;;15.21;51.90;97668.72;5095407;28;20070;-61
2021/10/19 07:34:51;;;;;;;6.63;5.65;;;;;;;15.44;51.83;97672.22;5095316;28;20012;-61
2021/10/19 07:37:17;;;;;;;7.40;6.20;;;;;;;16.45;50.48;97669.84;5095193;28;20474;-61
2021/10/19 07:39:44;;;;;;;6.78;5.68;;;;;;;17.72;48.29;97681.69;5094650;28;20038;-63
2021/10/19 07:42:10;;;;;;;8.10;5.22;;;;;;;18.71;44.75;97674.09;5094368;28;20115;-62
2021/10/19 07:44:36;;;;;;;9.63;5.57;;;;;;;19.41;43.01;97673.88;5095097;28;20028;-63
2021/10/19 07:47:02;;;;;;;22.60;16.90;;;;;;;19.71;41.52;97680.16;5095093;28;20184;-63
2021/10/19 07:49:27;;;;;;;5.00;4.53;;;;;;;19.78;38.76;97676.22;5094941;28;20012;-64
2021/10/19 07:51:53;;;;;;;5.65;4.88;;;;;;;19.52;37.82;97680.38;5094922;28;20031;-61
2021/10/19 07:54:19;;;;;;;6.68;4.82;;;;;;;19.52;40.12;97680.38;5094767;28;20382;-63
2021/10/19 07:56:44;;;;;;;5.50;4.80;;;;;;;19.40;38.90;97674.81;5094838;28;20024;-62
2021/10/19 07:59:10;;;;;;;5.13;4.63;;;;;;;19.27;39.98;97674.63;5094943;28;20031;-63
2021/10/19 08:01:36;;;;;;;8.25;5.47;;;;;;;19.16;39.35;97687.63;5094612;28;20411;-64
2021/10/19 08:04:03;;;;;;;5.55;4.95;;;;;;;19.04;41.13;97689.13;5094377;28;20047;-61
2021/10/19 08:06:29;;;;;;;6.38;5.22;;;;;;;18.78;41.15;97683.47;5094562;28;20024;-63
2021/10/19 08:08:54;;;;;;;5.90;5.30;;;;;;;18.49;42.81;97686.72;5094417;28;20027;-63
2021/10/19 08:11:22;;;;;;;5.40;4.82;;;;;;;18.25;42.73;97687.03;5094454;28;20447;-61
2021/10/19 08:13:47;;;;;;;5.82;4.88;;;;;;;18.16;42.60;97691.03;5094528;28;20081;-62
2021/10/19 08:16:13;;;;;;;6.28;5.43;;;;;;;18.01;42.45;97689.97;5094551;28;20458;-63
2021/10/19 08:18:39;;;;;;;6.25;5.65;;;;;;;17.99;43.53;97691.81;5094350;28;20461;-64
2021/10/19 08:21:06;;;;;;;7.28;4.90;;;;;;;17.91;41.69;97692.19;5094349;28;20493;-62
2021/10/19 08:23:32;;;;;;;6.18;5.53;;;;;;;17.88;42.01;97694.16;5094405;28;20050;-64
2021/10/19 08:25:58;;;;;;;6.45;5.35;;;;;;;17.81;42.52;97686.53;5094298;28;20066;-64
2021/10/19 08:28:29;;;;;;;11.82;6.97;;;;;;;17.66;44.93;97690.78;5094309;28;20426;-61
2021/10/19 08:30:55;;;;;;;7.57;6.05;;;;;;;17.47;44.66;97689.94;5094159;28;20028;-63
2021/10/19 08:33:20;;;;;;;8.10;6.00;;;;;;;17.28;44.85;97686.38;5094137;28;20398;-63
2021/10/19 08:35:46;;;;;;;5.78;5.22;;;;;;;17.30;45.05;97691.59;5076007;28;20134;-63
2021/10/19 08:38:13;;;;;;;5.90;5.32;;;;;;;17.30;45.43;97683.66;5094127;28;20024;-57
2021/10/19 08:40:41;;;;;;;5.97;5.38;;;;;;;17.38;44.78;97681.53;5094009;28;20032;-62
2021/10/19 08:43:08;;;;;;;8.40;6.40;;;;;;;17.38;44.82;97676.25;5093874;28;20024;-61
2021/10/19 08:45:33;;;;;;;6.65;6.00;;;;;;;17.22;45.01;97677.91;5093863;28;20020;-63
2021/10/19 08:48:00;;;;;;;9.82;5.53;;;;;;;17.24;44.52;97678.66;5093900;28;20118;-64
2021/10/19 08:50:27;;;;;;;6.78;6.10;;;;;;;17.29;44.67;97674.91;5093788;28;20529;-61
2021/10/19 08:52:53;;;;;;;10.70;6.22;;;;;;;17.38;44.11;97676.25;5093631;28;20020;-63
2021/10/19 08:55:20;;;;;;;6.13;5.22;;;;;;;16.97;43.77;97676.34;5093757;28;20031;-63
2021/10/19 08:57:46;;;;;;;6.60;5.95;;;;;;;16.81;45.96;97679.69;5093696;28;20024;-61
2021/10/19 09:00:12;;;;;;;6.97;6.10;;;;;;;16.88;45.80;97675.84;5093692;28;20355;-64
2021/10/19 09:02:46;;;;;;;7.65;6.00;;;;;;;17.07;45.45;97677.69;5075443;28;20024;-64
2021/10/19 09:05:14;;;;;;;7.28;5.85;;;;;;;17.09;42.89;97673.16;5093356;28;20126;-63
2021/10/19 09:07:40;;;;;;;5.72;5.20;;;;;;;17.05;43.10;97672.44;5093486;28;20051;-61
2021/10/19 09:10:15;;;;;;;6.63;6.00;;;;;;;17.12;43.91;97673.03;5093628;28;20028;-63
2021/10/19 09:12:52;;;;;;;7.47;5.93;;;;;;;17.24;44.01;97668.94;5093565;28;20024;-61
2021/10/19 09:15:21;;;;;;;9.40;7.47;;;;;;;17.06;44.68;97665.34;5093517;28;20020;-63
2021/10/19 09:17:47;;;;;;;8.60;6.22;;;;;;;17.08;45.79;97662.66;5093440;28;20027;-64
2021/10/19 09:20:15;;;;;;;6.85;5.78;;;;;;;17.21;46.94;97661.16;5093534;28;20035;-63
2021/10/19 09:23:01;;;;;;;7.35;5.68;;;;;;;17.49;45.12;97662.47;5093370;28;20020;-62
2021/10/19 09:25:30;;;;;;;6.53;5.85;;;;;;;17.60;44.23;97664.63;5093350;28;20402;-62
2021/10/19 09:27:56;;;;;;;7.28;5.65;;;;;;;17.65;44.58;97657.31;5093445;28;20020;-60
2021/10/19 09:30:44;;;;;;;6.15;5.45;;;;;;;17.79;43.12;97661.06;5093165;28;20149;-60
2021/10/19 09:33:15;;;;;;;7.93;5.38;;;;;;;17.61;45.02;97654.91;5093193;28;20122;-61
2021/10/19 09:35:42;;;;;;;7.75;5.85;;;;;;;17.47;44.90;97655.56;5093211;28;20032;-61
2021/10/19 09:38:10;;;;;;;6.50;5.60;;;;;;;17.40;44.80;97649.72;5093210;28;20024;-63
2021/10/19 09:40:45;;;;;;;6.03;5.43;;;;;;;17.35;45.43;97652.59;5093053;28;20107;-60
2021/10/19 09:43:16;;;;;;;10.35;6.18;;;;;;;17.24;46.37;97650.44;5093130;28;20028;-63
2021/10/19 09:45:42;;;;;;;;;;;;;;;17.25;46.93;97651.31;5093711;28;20024;-64
2021/10/19 09:48:15;;;;;;;11.65;6.15;;;;;;;17.11;47.78;97642.25;5093104;28;20415;-62
2021/10/19 09:50:41;;;;;;;7.38;6.63;;;;;;;16.93;48.13;97636.88;5093130;28;20406;-62
2021/10/19 09:53:10;;;;;;;7.95;6.90;;;;;;;16.86;48.74;97635.41;5092999;28;20040;-63
2021/10/19 09:55:36;;;;;;;7.30;6.60;;;;;;;16.73;49.56;97637.78;5092916;28;20129;-61
2021/10/19 09:58:03;;;;;;;12.25;9.52;;;;;;;16.93;49.60;97636.00;5092983;28;20044;-64
2021/10/19 10:00:32;;;;;;;12.70;6.72;;;;;;;16.99;50.65;97632.22;5092992;28;20472;-62
2021/10/19 10:03:03;;;;;;;7.25;6.45;;;;;;;16.98;51.58;97630.50;5092883;28;20028;-61
2021/10/19 10:05:30;;;;;;;8.32;6.95;;;;;;;17.13;49.48;97623.66;5096511;28;20036;-61
2021/10/19 10:07:58;;;;;;;9.80;7.00;;;;;;;17.10;49.94;97631.75;5096987;28;20040;-61
2021/10/19 10:10:25;;;;;;;7.28;6.55;;;;;;;16.82;49.85;97622.44;5097045;28;20024;-63
2021/10/19 10:13:02;;;;;;;8.88;6.75;;;;;;;16.73;49.46;97624.56;5096986;28;20048;-63
2021/10/19 10:15:33;;;;;;;10.68;7.22;;;;;;;16.71;49.82;97620.28;5096856;28;20022;-62
2021/10/19 10:18:02;;;;;;;7.82;7.00;;;;;;;16.84;47.88;97623.22;5096811;28;20086;-62
2021/10/19 10:20:30;;;;;;;11.85;6.63;;;;;;;17.00;49.85;97616.28;5096637;28;20020;-60
2021/10/19 10:22:56;;;;;;;10.63;6.50;;;;;;;17.02;49.64;97617.06;5096701;28;20024;-61
2021/10/19 10:25:24;;;;;;;7.97;6.38;;;;;;;17.19;49.45;97620.75;5096754;28;20020;-62
2021/10/19 10:27:49;;;;;;;7.82;6.72;;;;;;;17.25;49.26;97609.84;5096849;28;20081;-61
2021/10/19 10:30:23;;;;;;;11.43;6.57;;;;;;;17.39;49.31;97598.59;5096541;28;20385;-61
2021/10/19 10:32:50;;;;;;;7.38;6.45;;;;;;;17.43;47.62;97602.81;5096411;28;20028;-62
2021/10/19 10:35:18;;;;;;;10.40;6.72;;;;;;;17.50;48.35;97599.88;5096631;28;20020;-62
2021/10/19 10:37:50;;;;;;;13.07;7.50;;;;;;;17.39;49.02;97601.25;5096477;28;20469;-61
2021/10/19 10:40:35;;;;;;;10.10;7.00;;;;;;;17.58;48.93;97596.84;5096534;28;20385;-63
2021/10/19 10:43:22;;;;;;;11.68;8.05;;;;;;;17.66;48.23;97590.25;5096041;28;20114;-63
2021/10/19 10:46:06;;;;;;;7.63;6.93;;;;;;;17.74;47.54;97589.84;5096290;28;20032;-61
2021/10/19 10:48:33;;;;;;;8.27;6.97;;;;;;;17.85;49.92;97591.94;5096471;28;20024;-64
2021/10/19 10:50:58;;;;;;;7.68;6.88;;;;;;;17.98;49.19;97584.25;5096345;28;20023;-63
2021/10/19 10:53:45;;;;;;;8.85;7.35;;;;;;;18.06;48.44;97584.69;5096128;28;20036;-62
2021/10/19 10:56:13;;;;;;;13.90;8.13;;;;;;;17.98;48.28;97586.03;5095986;28;20082;-63
2021/10/19 10:58:41;;;;;;;10.13;6.95;;;;;;;18.00;48.87;97586.81;5096087;28;20051;-63
2021/10/19 11:01:27;;;;;;;9.63;7.82;;;;;;;18.00;48.83;97579.69;5096006;28;20490;-61
2021/10/19 11:04:08;;;;;;;9.77;7.32;;;;;;;17.86;48.39;97574.28;5095781;28;20147;-62
2021/10/19 11:06:36;;;;;;;8.77;7.35;;;;;;;18.01;48.15;97570.84;5095845;28;20024;-60
2021/10/19 11:09:15;;;;;;;12.88;7.50;;;;;;;18.30;48.78;97564.97;5095772;28;20020;-61
2021/10/19 11:11:44;;;;;;;9.57;7.13;;;;;;;18.49;46.78;97567.50;5095779;28;20062;-63
2021/10/19 11:14:12;;;;;;;8.07;6.95;;;;;;;18.51;46.92;97568.25;5077658;28;20028;-61
2021/10/19 11:16:40;;;;;;;8.65;7.78;;;;;;;18.53;46.99;97570.81;5095582;28;20031;-62
2021/10/19 11:19:27;;;;;;;9.13;7.47;;;;;;;18.47;47.16;97563.19;5095542;28;20035;-61
2021/10/19 11:21:55;;;;;;;8.52;7.43;;;;;;;18.31;48.28;97561.41;5095551;28;20118;-62
2021/10/19 11:24:22;;;;;;;8.52;7.15;;;;;;;18.44;47.52;97567.75;5095785;28;20031;-64
2021/10/19 11:26:48;;;;;;;50.20;35.42;;;;;;;18.19;47.93;97565.56;5095449;28;20028;-60
2021/10/19 11:29:14;;;;;;;11.05;9.77;;;;;;;18.03;48.60;97561.03;5095465;28;20035;-63